Time;durP1;ratioP1;P1;durP2;ratioP2;P2;SDS_P1;SDS_P2;PMS_P1;PMS_P2;Temp;Humidity;BMP_temperature;BMP_pressure;BME280_temperature;BME280_humidity;BME280_pressure;Samples;Min_cycle;Max_cycle;Signal;HPM_P1;HPM_P2
2023/10/26 00:02:55;;;;;;;1.60;1.50;;;;;;;11.87;56.28;98191.91;10385441;28;20236;-67
2023/10/26 00:07:57;;;;;;;1.77;1.67;;;;;;;11.88;55.78;98225.72;10385710;28;20237;-66
2023/10/26 00:12:58;;;;;;;1.50;1.37;;;;;;;11.23;56.25;98325.50;10387455;28;20711;-66
2023/10/26 00:18:00;;;;;;;1.73;1.63;;;;;;;12.85;54.52;98138.50;10389265;28;20236;-66
2023/10/26 00:23:04;;;;;;;2.57;1.50;;;;;;;12.11;54.26;98288.47;10390255;28;20228;-66
2023/10/26 00:28:06;;;;;;;1.53;1.43;;;;;;;12.14;54.55;98253.13;10393259;28;20323;-66
2023/10/26 00:33:08;;;;;;;1.63;1.50;;;;;;;11.77;55.38;98280.91;10390932;28;20259;-67
2023/10/26 00:38:10;;;;;;;2.83;1.40;;;;;;;12.54;54.10;98183.53;10389927;28;20265;-66
2023/10/26 00:43:22;;;;;;;1.50;1.50;;;;;;;11.97;55.14;98272.56;10389401;28;20225;-66
2023/10/26 00:48:25;;;;;;;1.57;1.47;;;;;;;12.64;54.00;98177.56;10392281;28;20233;-66
2023/10/26 00:53:27;;;;;;;1.47;1.43;;;;;;;12.54;53.88;98191.56;10406657;28;20245;-65
2023/10/26 00:58:30;;;;;;;1.53;1.37;;;;;;;11.92;55.87;98161.75;10386280;28;20236;-66
2023/10/26 01:03:33;;;;;;;1.53;1.47;;;;;;;11.52;55.50;98264.97;10385396;28;20332;-66
2023/10/26 01:08:35;;;;;;;1.30;1.30;;;;;;;12.49;54.43;98158.47;10387071;28;20331;-67
2023/10/26 01:13:37;;;;;;;1.93;1.63;;;;;;;11.96;55.15;98184.34;10388727;28;20248;-66
2023/10/26 01:18:39;;;;;;;2.87;1.60;;;;;;;12.45;54.55;98165.31;10387153;28;20235;-65
2023/10/26 01:23:41;;;;;;;1.70;1.60;;;;;;;13.34;52.42;98138.06;10386418;28;20243;-68
2023/10/26 01:28:42;;;;;;;1.50;1.40;;;;;;;13.19;52.42;98197.66;10390414;28;20650;-67
2023/10/26 01:33:45;;;;;;;1.73;1.63;;;;;;;12.85;53.43;98226.28;10390627;28;20239;-66
2023/10/26 01:38:46;;;;;;;1.40;1.30;;;;;;;12.06;54.43;98302.53;10386921;28;20320;-66
2023/10/26 01:43:48;;;;;;;1.73;1.50;;;;;;;12.50;54.36;98158.22;10386190;28;20264;-66
2023/10/26 01:48:50;;;;;;;1.70;1.47;;;;;;;12.74;53.73;98164.34;10388063;28;20231;-66
2023/10/26 01:53:52;;;;;;;3.43;1.73;;;;;;;11.55;55.69;98271.75;10386477;28;20438;-66
2023/10/26 01:58:54;;;;;;;2.00;1.90;;;;;;;12.09;55.13;98202.06;10387344;28;20232;-66
2023/10/26 02:03:55;;;;;;;1.97;1.80;;;;;;;13.40;52.71;98091.44;10386947;28;20710;-66
2023/10/26 02:08:57;;;;;;;2.03;1.83;;;;;;;13.43;52.21;98111.59;10387494;28;20220;-65
2023/10/26 02:13:59;;;;;;;1.63;1.53;;;;;;;11.72;55.10;98291.50;10389652;28;20233;-66
2023/10/26 02:19:01;;;;;;;1.80;1.70;;;;;;;12.18;54.82;98217.59;10391426;28;21299;-65
2023/10/26 02:24:03;;;;;;;2.63;1.50;;;;;;;11.98;55.16;98231.34;10389667;28;20229;-66
2023/10/26 02:29:05;;;;;;;1.77;1.50;;;;;;;12.04;55.44;98169.78;10385241;28;20233;-65
2023/10/26 02:34:07;;;;;;;5.30;1.60;;;;;;;12.36;54.73;98170.22;10368929;28;20230;-66
2023/10/26 02:39:08;;;;;;;1.67;1.57;;;;;;;11.73;55.12;98265.56;10346901;28;20236;-66
2023/10/26 02:44:10;;;;;;;2.47;1.70;;;;;;;12.41;53.38;98212.44;10350058;28;20236;-66
2023/10/26 02:49:12;;;;;;;2.00;1.77;;;;;;;13.05;53.13;98097.78;10350321;28;20250;-66
2023/10/26 02:54:14;;;;;;;1.53;1.50;;;;;;;12.57;53.56;98181.41;10351605;28;20257;-65
2023/10/26 02:59:16;;;;;;;1.70;1.60;;;;;;;13.01;52.66;98125.38;10350700;28;20474;-66
2023/10/26 03:04:18;;;;;;;2.10;1.90;;;;;;;12.87;52.63;98149.84;10353392;28;20233;-67
2023/10/26 03:09:20;;;;;;;1.67;1.57;;;;;;;12.82;53.51;98103.28;10357370;28;20763;-65
2023/10/26 03:14:22;;;;;;;1.70;1.60;;;;;;;12.85;52.50;98145.75;10352840;28;20241;-65
2023/10/26 03:19:23;;;;;;;2.03;1.90;;;;;;;12.60;52.51;98178.25;10346437;28;20284;-66
2023/10/26 03:24:25;;;;;;;1.70;1.60;;;;;;;12.07;53.78;98205.00;10352871;28;20300;-66
2023/10/26 03:29:27;;;;;;;1.70;1.60;;;;;;;12.04;53.83;98208.13;10346844;28;20238;-65
2023/10/26 03:34:29;;;;;;;1.73;1.63;;;;;;;12.47;53.31;98160.56;10350711;28;20724;-68
2023/10/26 03:39:30;;;;;;;2.63;1.50;;;;;;;12.97;51.90;98146.50;10349957;28;20279;-66
2023/10/26 03:44:32;;;;;;;1.70;1.60;;;;;;;12.00;53.08;98306.97;10354032;28;20320;-66
2023/10/26 03:49:34;;;;;;;1.60;1.50;;;;;;;13.07;51.85;98108.31;10351343;28;20287;-66
2023/10/26 03:54:36;;;;;;;1.67;1.57;;;;;;;12.39;52.73;98225.28;10356551;28;20281;-67
2023/10/26 03:59:37;;;;;;;1.50;1.40;;;;;;;12.36;52.63;98238.09;10357064;28;20320;-66
2023/10/26 04:04:39;;;;;;;1.73;1.63;;;;;;;;;;10358418;28;20236;-67
2023/10/26 04:09:41;;;;;;;4.00;2.03;;;;;;;13.17;51.70;98156.81;10359879;28;21637;-66
2023/10/26 04:14:43;;;;;;;2.50;1.70;;;;;;;13.24;51.29;98153.97;10393475;28;20232;-67
2023/10/26 04:19:45;;;;;;;1.70;1.60;;;;;;;12.62;51.31;98292.38;10364479;28;20436;-68
2023/10/26 04:24:47;;;;;;;1.60;1.50;;;;;;;13.32;50.97;98150.13;10354197;28;20283;-68
2023/10/26 04:29:48;;;;;;;1.70;1.60;;;;;;;14.04;49.31;98157.47;10351630;28;20232;-68
2023/10/26 04:34:50;;;;;;;2.10;1.60;;;;;;;14.26;48.87;98137.88;10354582;28;20696;-68
2023/10/26 04:39:53;;;;;;;3.40;2.07;;;;;;;13.46;50.45;98164.88;10354243;28;20240;-68
2023/10/26 04:44:54;;;;;;;1.97;1.67;;;;;;;13.38;50.09;98237.78;10351322;28;20229;-68
2023/10/26 04:49:56;;;;;;;3.27;1.90;;;;;;;13.61;50.32;98113.25;10351811;28;20225;-68
2023/10/26 04:54:58;;;;;;;2.77;1.70;;;;;;;14.08;49.19;98133.59;10354028;28;20229;-68
2023/10/26 05:05:10;;;;;;;2.73;1.70;;;;;;;9.78;59.05;98020.13;10460313;27;20861;-67
2023/10/26 05:10:12;;;;;;;1.90;1.60;;;;;;;10.64;57.05;98009.44;10472133;28;20230;-68
2023/10/26 05:15:14;;;;;;;2.30;1.50;;;;;;;10.52;57.32;97999.50;10460305;28;20238;-67
2023/10/26 05:20:16;;;;;;;1.87;1.63;;;;;;;9.84;59.23;97984.56;10458392;28;20203;-68
2023/10/26 05:25:18;;;;;;;1.90;1.80;;;;;;;10.96;56.47;97967.19;10466863;28;20644;-68
2023/10/26 05:30:19;;;;;;;3.03;2.37;;;;;;;9.86;58.41;98019.88;10469185;28;20302;-68
2023/10/26 05:35:21;;;;;;;2.13;1.90;;;;;;;9.10;60.33;98051.16;10461562;28;20228;-68
2023/10/26 05:40:23;;;;;;;2.00;1.83;;;;;;;9.85;58.72;97974.69;10452378;28;21161;-68
2023/10/26 05:45:25;;;;;;;2.43;1.93;;;;;;;9.32;60.32;97942.16;10455837;28;20757;-68
2023/10/26 05:50:26;;;;;;;4.53;3.83;;;;;;;10.14;59.20;97900.91;10456246;28;21208;-68
2023/10/26 05:55:28;;;;;;;3.43;2.60;;;;;;;10.67;56.81;97921.50;10454174;28;20253;-68
2023/10/26 06:00:31;;;;;;;4.67;2.17;;;;;;;11.20;55.56;97976.06;10456527;28;20253;-68
2023/10/26 06:05:33;;;;;;;2.00;1.90;;;;;;;10.58;56.72;97968.38;10453972;28;20235;-68
2023/10/26 06:10:35;;;;;;;2.50;2.30;;;;;;;11.42;55.41;97900.47;10457703;28;20243;-68
2023/10/26 06:15:37;;;;;;;2.30;2.20;;;;;;;10.62;56.08;98004.31;10433825;28;20228;-68
2023/10/26 06:20:41;;;;;;;2.83;1.73;;;;;;;12.19;54.13;97902.78;10425494;28;20633;-68
2023/10/26 06:25:42;;;;;;;3.50;3.20;;;;;;;11.40;55.31;97978.34;10427191;28;20251;-68
2023/10/26 06:30:44;;;;;;;2.80;2.50;;;;;;;12.26;53.63;97944.75;10431313;28;20795;-69
2023/10/26 06:35:46;;;;;;;2.47;2.00;;;;;;;12.59;52.84;97965.50;10427871;28;20238;-69
2023/10/26 06:40:48;;;;;;;2.70;1.77;;;;;;;11.96;53.99;98012.78;10428507;28;20228;-69
2023/10/26 06:45:50;;;;;;;6.57;3.00;;;;;;;12.28;54.41;97969.44;10426977;28;20232;-69
2023/10/26 06:51:02;;;;;;;10.90;5.97;;;;;;;11.95;54.90;97997.78;10426920;28;20278;-69
2023/10/26 06:56:13;;;;;;;9.30;4.50;;;;;;;12.29;53.65;98040.81;10437937;28;20236;-69
2023/10/26 07:01:14;;;;;;;4.90;3.30;;;;;;;12.51;53.72;98054.41;10432326;28;20244;-69
2023/10/26 07:06:21;;;;;;;3.80;2.50;;;;;;;11.98;54.29;98094.63;10429652;28;20260;-69
2023/10/26 07:11:23;;;;;;;3.13;2.70;;;;;;;11.80;54.57;98103.59;10440415;28;20224;-69
2023/10/26 07:16:25;;;;;;;2.23;2.10;;;;;;;10.45;57.21;98115.63;10430947;28;20853;-68
2023/10/26 07:21:27;;;;;;;3.83;2.30;;;;;;;11.23;56.18;98013.06;10431106;28;20323;-68
2023/10/26 07:26:28;;;;;;;3.60;2.57;;;;;;;10.61;57.75;98111.53;10430642;28;20655;-70
2023/10/26 07:31:30;;;;;;;4.87;2.80;;;;;;;11.60;56.89;97934.31;10427599;28;20220;-69
2023/10/26 07:36:32;;;;;;;4.43;2.87;;;;;;;11.00;58.61;97962.16;10429458;28;20746;-68
2023/10/26 07:41:34;;;;;;;3.37;2.90;;;;;;;11.31;58.68;97979.78;10429377;28;20266;-69
2023/10/26 07:46:55;;;;;;;3.20;2.90;;;;;;;11.17;58.66;97997.94;10428808;28;20598;-68
2023/10/26 07:51:57;;;;;;;2.80;2.60;;;;;;;11.68;58.55;97915.22;10426080;28;20234;-68
2023/10/26 07:56:59;;;;;;;4.17;2.77;;;;;;;11.20;59.44;97956.47;10428273;28;20240;-68
2023/10/26 08:02:00;;;;;;;3.00;2.70;;;;;;;11.68;58.66;97911.75;10428401;28;20240;-68
2023/10/26 08:07:02;;;;;;;2.60;2.40;;;;;;;11.26;59.59;97979.66;10429626;28;20231;-68
2023/10/26 08:12:05;;;;;;;3.00;2.80;;;;;;;11.64;57.91;97943.53;10428289;28;20697;-68
2023/10/26 08:17:07;;;;;;;2.93;2.73;;;;;;;10.77;60.40;98019.16;10425026;28;20331;-68
2023/10/26 08:22:10;;;;;;;3.13;2.90;;;;;;;11.49;58.95;97938.66;10420568;28;20224;-68
2023/10/26 08:27:12;;;;;;;2.70;2.50;;;;;;;11.42;58.68;98026.34;10420289;28;20224;-68
2023/10/26 08:32:13;;;;;;;5.13;3.20;;;;;;;11.75;59.26;97905.19;10417517;28;20230;-68
2023/10/26 08:37:17;;;;;;;4.73;2.80;;;;;;;10.78;61.16;98031.47;10423490;28;20250;-68
2023/10/26 08:42:19;;;;;;;2.90;2.70;;;;;;;11.12;60.88;97980.91;10421058;28;20259;-68
2023/10/26 08:47:22;;;;;;;2.60;2.40;;;;;;;11.60;60.14;97924.41;10425786;28;20228;-68
2023/10/26 08:52:26;;;;;;;2.50;2.40;;;;;;;11.87;59.38;97926.59;10418574;28;20314;-67
2023/10/26 08:57:29;;;;;;;2.50;2.30;;;;;;;12.65;57.33;97950.28;10426966;28;20244;-67
2023/10/26 09:02:31;;;;;;;3.27;2.60;;;;;;;12.19;58.67;97993.97;10422937;28;20331;-67
2023/10/26 09:07:34;;;;;;;3.90;2.97;;;;;;;13.50;55.48;97987.84;10417074;28;20376;-67
2023/10/26 09:12:35;;;;;;;9.43;5.80;;;;;;;12.83;56.81;98086.94;10423459;28;20223;-67
2023/10/26 09:17:37;;;;;;;10.00;3.93;;;;;;;13.21;56.59;97990.63;10421518;28;20227;-67
2023/10/26 09:22:40;;;;;;;6.70;5.53;;;;;;;12.15;58.51;98153.69;10423598;28;20247;-70
2023/10/26 09:27:43;;;;;;;4.40;3.53;;;;;;;13.49;55.91;98000.47;10417947;28;20246;-67
2023/10/26 09:32:45;;;;;;;3.10;2.80;;;;;;;13.20;56.99;98018.56;10415136;28;20436;-67
2023/10/26 09:37:50;;;;;;;3.30;2.70;;;;;;;11.93;59.11;98156.16;10425898;28;20835;-67
2023/10/26 09:42:56;;;;;;;3.40;2.80;;;;;;;12.98;57.64;98023.84;10420251;28;20770;-67
2023/10/26 09:48:00;;;;;;;2.67;2.47;;;;;;;11.89;59.95;98117.44;10426017;28;20231;-67
2023/10/26 09:53:02;;;;;;;4.30;2.73;;;;;;;12.53;59.13;98038.88;10427887;28;20220;-66
2023/10/26 09:58:08;;;;;;;2.57;2.37;;;;;;;14.13;55.33;97967.72;10428035;28;20230;-67
2023/10/26 10:03:15;;;;;;;2.50;2.40;;;;;;;14.02;54.21;98060.88;10428205;28;20641;-67
2023/10/26 10:08:54;;;;;;;2.30;2.10;;;;;;;13.23;56.97;98090.59;10433307;28;20337;-67
2023/10/26 10:13:56;;;;;;;2.03;1.93;;;;;;;13.55;56.72;98095.41;10431760;28;20280;-67
2023/10/26 10:19:20;;;;;;;2.13;1.83;;;;;;;11.68;60.48;98185.84;10421453;28;20232;-66
2023/10/26 10:24:39;;;;;;;2.47;2.27;;;;;;;11.38;62.10;98140.34;10434957;28;20804;-66
2023/10/26 10:29:42;;;;;;;5.03;2.80;;;;;;;11.96;61.43;98015.47;10431550;28;20224;-65
2023/10/26 10:34:45;;;;;;;2.20;2.10;;;;;;;12.01;61.08;98082.59;10432033;28;20224;-66
2023/10/26 10:40:13;;;;;;;4.13;3.57;;;;;;;11.41;62.13;98129.97;10435632;28;20302;-66
2023/10/26 10:45:16;;;;;;;3.10;2.80;;;;;;;12.47;60.54;98013.84;10413223;28;20319;-65
2023/10/26 10:50:22;;;;;;;3.30;3.00;;;;;;;;;;10424692;28;20678;-65
2023/10/26 10:55:29;;;;;;;2.40;2.30;;;;;;;12.83;59.81;97973.41;10424768;28;20652;-65
2023/10/26 11:06:18;;;;;;;4.07;3.40;;;;;;;12.28;62.03;97993.59;10534215;27;20787;-66
2023/10/26 11:11:26;;;;;;;3.00;2.80;;;;;;;12.14;62.65;98004.59;10436728;28;20318;-66
2023/10/26 11:16:28;;;;;;;2.33;2.23;;;;;;;13.25;60.53;97917.38;10467083;28;20317;-65
2023/10/26 11:21:30;;;;;;;2.70;2.50;;;;;;;13.04;60.60;97985.25;10465166;28;20474;-67
2023/10/26 11:26:32;;;;;;;2.53;2.33;;;;;;;12.70;61.70;97986.09;10462382;28;20232;-66
2023/10/26 11:31:44;;;;;;;3.10;2.80;;;;;;;13.82;59.76;97892.06;10465719;28;20227;-67
2023/10/26 11:36:45;;;;;;;3.20;3.00;;;;;;;13.00;62.08;97947.34;10464597;28;20280;-66
2023/10/26 11:41:54;;;;;;;3.77;3.07;;;;;;;13.94;59.76;97877.66;10463590;28;20231;-66
2023/10/26 11:46:57;;;;;;;3.23;2.60;;;;;;;13.67;60.98;97881.94;10463837;28;20259;-67
2023/10/26 11:51:59;;;;;;;3.07;2.83;;;;;;;13.55;61.17;97916.19;10460871;28;20280;-66
2023/10/26 11:57:02;;;;;;;3.70;3.40;;;;;;;13.93;60.04;97884.09;10463793;28;20259;-67
2023/10/26 12:02:05;;;;;;;4.00;3.60;;;;;;;14.42;59.61;97838.31;10460269;28;20231;-67
2023/10/26 12:07:07;;;;;;;3.33;3.03;;;;;;;15.06;58.45;97815.88;10463362;28;20848;-66
2023/10/26 12:12:09;;;;;;;3.40;3.10;;;;;;;14.20;60.05;97919.09;10460587;28;20235;-67
2023/10/26 12:17:10;;;;;;;3.40;3.10;;;;;;;15.25;58.83;97835.09;10436007;28;20236;-66
2023/10/26 12:22:12;;;;;;;3.70;3.00;;;;;;;14.19;60.80;97939.00;10431828;28;20235;-66
2023/10/26 12:27:16;;;;;;;4.63;3.23;;;;;;;14.23;60.65;97934.72;10437318;28;20235;-66
2023/10/26 12:32:19;;;;;;;7.03;3.30;;;;;;;14.50;60.59;97899.75;10437309;28;20228;-67
2023/10/26 12:37:21;;;;;;;6.57;2.80;;;;;;;15.05;59.58;97848.44;10434820;28;20319;-67
2023/10/26 12:42:24;;;;;;;3.20;2.63;;;;;;;14.72;60.99;97861.16;10435466;28;20228;-67
2023/10/26 12:47:26;;;;;;;3.93;2.40;;;;;;;15.05;59.86;97854.66;10432721;28;20319;-67
2023/10/26 12:52:27;;;;;;;4.27;2.67;;;;;;;14.49;61.31;97935.81;10432967;28;20231;-70
2023/10/26 12:57:29;;;;;;;4.27;2.30;;;;;;;15.15;59.94;97867.38;10435708;28;20239;-70
2023/10/26 13:02:31;;;;;;;3.57;2.53;;;;;;;14.98;60.70;97869.41;10428543;28;20261;-71
2023/10/26 13:07:33;;;;;;;7.23;3.40;;;;;;;15.14;59.63;97895.38;10436464;28;20250;-70
2023/10/26 13:12:36;;;;;;;4.67;2.63;;;;;;;15.08;60.76;97851.44;10409608;28;20224;-71
2023/10/26 13:17:38;;;;;;;3.93;3.03;;;;;;;15.49;59.75;97826.56;10434240;28;20331;-70
2023/10/26 13:22:39;;;;;;;4.50;2.60;;;;;;;15.68;59.02;97840.41;10432227;28;20227;-70
2023/10/26 13:27:41;;;;;;;5.23;2.50;;;;;;;16.16;57.89;97797.88;10379316;28;20301;-69
2023/10/26 13:32:43;;;;;;;6.63;2.50;;;;;;;15.62;58.78;97839.59;10383484;28;20229;-70
2023/10/26 13:37:46;;;;;;;5.37;2.43;;;;;;;15.72;58.09;97854.97;10439960;28;20224;-70
2023/10/26 13:42:49;;;;;;;4.23;2.73;;;;;;;16.01;57.65;97867.97;10394585;28;22317;-70
2023/10/26 13:47:50;;;;;;;5.10;3.17;;;;;;;15.45;58.94;97874.81;10390031;28;20286;-70
2023/10/26 13:52:52;;;;;;;5.97;3.07;;;;;;;15.67;58.04;97842.28;10438695;28;20219;-66
2023/10/26 13:57:54;;;;;;;7.43;4.10;;;;;;;15.93;57.63;97838.84;10394185;28;20232;-70
2023/10/26 14:02:55;;;;;;;6.93;3.37;;;;;;;16.24;56.83;97836.97;10388400;28;20630;-70
2023/10/26 14:07:58;;;;;;;5.33;3.20;;;;;;;15.50;58.31;97938.69;10393619;28;20232;-67
2023/10/26 14:13:00;;;;;;;5.63;3.23;;;;;;;16.58;55.44;97866.16;10388340;28;20232;-68
2023/10/26 14:18:02;;;;;;;4.60;2.80;;;;;;;16.31;56.35;97856.44;10439876;28;20272;-69
2023/10/26 14:23:05;;;;;;;7.67;3.10;;;;;;;15.45;56.80;97947.56;10487853;28;20264;-70
2023/10/26 14:28:07;;;;;;;7.43;3.43;;;;;;;16.03;56.27;97858.53;10445835;28;20250;-70
2023/10/26 14:33:08;;;;;;;5.30;2.63;;;;;;;15.59;57.38;97885.09;10423215;28;20231;-69
2023/10/26 14:38:10;;;;;;;8.53;3.20;;;;;;;15.10;56.49;97957.06;10490784;28;20227;-69
2023/10/26 14:43:12;;;;;;;9.53;3.47;;;;;;;14.73;55.82;97932.78;10435774;28;20223;-69
2023/10/26 14:48:14;;;;;;;10.20;3.27;;;;;;;14.86;55.02;97926.97;10438303;28;20977;-69
2023/10/26 14:53:15;;;;;;;6.67;3.73;;;;;;;14.45;55.24;97921.22;10477209;28;20200;-68
2023/10/26 14:58:17;;;;;;;5.03;2.57;;;;;;;14.18;55.46;97897.03;10475994;28;20292;-69
2023/10/26 15:03:19;;;;;;;8.87;3.27;;;;;;;14.84;53.05;97912.94;10437447;28;20239;-69
2023/10/26 15:08:20;;;;;;;10.13;3.63;;;;;;;14.82;53.81;97893.56;10453397;28;20229;-70
2023/10/26 15:13:22;;;;;;;9.67;3.27;;;;;;;15.30;53.40;97910.56;10437967;28;20690;-68
2023/10/26 15:18:25;;;;;;;5.30;2.80;;;;;;;13.39;55.99;97936.66;10479937;28;20345;-68
2023/10/26 15:23:26;;;;;;;4.37;2.50;;;;;;;14.18;53.71;97880.88;10443653;28;20236;-69
2023/10/26 15:28:32;;;;;;;3.03;1.90;;;;;;;13.34;54.62;97968.03;10475360;28;20621;-68
2023/10/26 15:33:34;;;;;;;4.30;2.83;;;;;;;12.95;55.69;97955.34;10436590;28;20243;-67
2023/10/26 15:38:40;;;;;;;4.83;2.67;;;;;;;13.71;54.86;97870.69;10473320;28;20302;-68
2023/10/26 15:43:42;;;;;;;6.10;2.30;;;;;;;14.36;53.46;97890.47;10442542;28;20434;-67
2023/10/26 15:48:44;;;;;;;10.57;2.73;;;;;;;13.74;54.02;97940.06;10475624;28;20301;-69
2023/10/26 15:54:07;;;;;;;5.73;2.30;;;;;;;14.04;53.64;97881.25;10453029;28;20645;-67
2023/10/26 15:59:09;;;;;;;5.50;2.53;;;;;;;14.53;52.18;97890.34;10489857;28;20238;-67
2023/10/26 16:04:11;;;;;;;4.40;2.10;;;;;;;14.97;51.73;97881.28;10494664;28;20300;-68
2023/10/26 16:09:13;;;;;;;4.67;2.10;;;;;;;14.19;51.99;97963.22;10494348;28;20233;-68
2023/10/26 16:14:16;;;;;;;3.73;2.87;;;;;;;13.34;53.21;98043.25;10483125;28;20364;-70
2023/10/26 16:19:18;;;;;;;3.17;2.07;;;;;;;13.80;52.60;97961.41;10475345;28;20439;-69
2023/10/26 16:24:20;;;;;;;2.77;2.20;;;;;;;12.98;54.05;97959.41;10455446;28;20231;-66
2023/10/26 16:29:21;;;;;;;6.20;3.27;;;;;;;12.58;53.77;97996.03;10488392;28;20234;-69
2023/10/26 16:34:23;;;;;;;3.63;2.20;;;;;;;13.70;51.16;97960.44;10488118;28;20238;-68
2023/10/26 16:39:25;;;;;;;8.13;2.80;;;;;;;13.43;52.29;97988.84;10464382;28;20319;-69
2023/10/26 16:44:26;;;;;;;8.63;2.60;;;;;;;13.46;53.18;97934.63;10485580;28;20231;-70
2023/10/26 16:49:28;;;;;;;10.63;3.90;;;;;;;13.41;51.95;97985.59;10486087;28;20242;-69
2023/10/26 16:54:30;;;;;;;7.43;2.97;;;;;;;12.81;51.93;98061.41;10485649;28;20239;-66
2023/10/26 16:59:32;;;;;;;7.77;3.30;;;;;;;12.21;53.93;98025.09;10484272;28;20598;-67
2023/10/26 17:04:35;;;;;;;7.67;2.80;;;;;;;12.96;53.04;97930.13;10486366;28;20977;-67
2023/10/26 17:09:36;;;;;;;8.87;3.03;;;;;;;12.63;52.82;97976.53;10484823;28;20326;-66
2023/10/26 17:14:38;;;;;;;6.50;2.30;;;;;;;12.53;53.19;97948.47;10482114;28;20231;-69
2023/10/26 17:19:40;;;;;;;9.47;3.30;;;;;;;12.17;53.32;97988.03;10483850;28;20235;-69
2023/10/26 17:24:42;;;;;;;6.33;2.87;;;;;;;12.63;52.58;97961.25;10478903;28;20239;-67
2023/10/26 17:29:47;;;;;;;7.30;3.17;;;;;;;12.07;52.82;98017.31;10481902;28;20227;-68
2023/10/26 17:34:49;;;;;;;8.23;3.17;;;;;;;12.68;52.84;97915.72;10480252;28;20659;-68
2023/10/26 17:39:50;;;;;;;5.80;2.63;;;;;;;12.52;52.32;98026.53;10484632;28;20322;-68
2023/10/26 17:44:53;;;;;;;7.90;2.80;;;;;;;13.23;51.45;97930.25;10482450;28;20798;-69
2023/10/26 17:49:55;;;;;;;6.83;2.73;;;;;;;13.45;51.34;97902.63;10456878;28;20664;-69
2023/10/26 17:54:57;;;;;;;11.23;3.27;;;;;;;12.80;51.82;97990.78;10477421;28;20610;-67
2023/10/26 18:00:00;;;;;;;6.00;2.43;;;;;;;13.38;51.27;97958.41;10479676;28;20752;-68
2023/10/26 18:05:03;;;;;;;6.67;2.70;;;;;;;12.98;51.81;97978.22;10479569;28;20657;-69
2023/10/26 18:10:05;;;;;;;9.53;3.13;;;;;;;13.10;51.30;97973.56;10477811;28;20725;-68
2023/10/26 18:15:08;;;;;;;7.20;3.13;;;;;;;13.18;51.90;97938.22;10478185;28;20489;-67
2023/10/26 18:20:10;;;;;;;7.80;3.57;;;;;;;13.29;52.52;97931.97;10482987;28;20844;-67
2023/10/26 18:25:13;;;;;;;11.27;3.50;;;;;;;13.90;50.58;97917.66;10479841;28;20232;-69
2023/10/26 18:30:15;;;;;;;14.27;3.80;;;;;;;14.34;50.50;97900.66;10481444;28;20227;-67
2023/10/26 18:35:16;;;;;;;9.70;3.93;;;;;;;12.05;53.94;98080.28;10476998;28;20226;-67
2023/10/26 18:40:18;;;;;;;11.67;4.27;;;;;;;14.31;50.82;97930.78;10480075;28;20227;-68
2023/10/26 18:45:20;;;;;;;6.03;2.93;;;;;;;15.23;48.84;97941.50;10478586;28;20319;-67
2023/10/26 18:50:22;;;;;;;8.33;3.00;;;;;;;14.94;49.22;98009.16;10477067;28;20304;-68
2023/10/26 18:55:23;;;;;;;8.00;3.10;;;;;;;14.30;50.32;98037.56;10478932;28;20721;-67
2023/10/26 19:00:25;;;;;;;7.30;3.77;;;;;;;15.15;49.16;97913.19;10477347;28;20662;-69
2023/10/26 19:05:26;;;;;;;10.77;2.67;;;;;;;14.56;50.28;97971.38;10479554;28;20705;-68
2023/10/26 19:10:28;;;;;;;6.20;2.73;;;;;;;13.45;52.35;98028.91;10478493;28;20227;-68
2023/10/26 19:15:31;;;;;;;6.63;3.60;;;;;;;13.28;53.58;97910.75;10474840;28;20867;-67
2023/10/26 19:20:35;;;;;;;11.80;3.53;;;;;;;13.90;52.45;97874.66;10484812;28;20279;-68
2023/10/26 19:25:37;;;;;;;8.50;3.17;;;;;;;14.15;51.62;97935.19;10479295;28;20234;-67
2023/10/26 19:30:40;;;;;;;14.83;4.10;;;;;;;14.19;52.16;97901.34;10492541;28;20230;-68
2023/10/26 19:35:43;;;;;;;8.53;3.70;;;;;;;13.70;53.90;97853.75;10475142;28;20231;-68
2023/10/26 19:40:45;;;;;;;7.93;3.37;;;;;;;13.99;53.54;97872.34;10488410;28;20276;-69
2023/10/26 19:45:47;;;;;;;9.13;3.40;;;;;;;13.71;54.15;97871.50;10490690;28;20231;-68
2023/10/26 19:50:49;;;;;;;8.80;3.37;;;;;;;13.81;54.26;97874.28;10495322;28;20269;-70
2023/10/26 19:55:52;;;;;;;10.20;3.63;;;;;;;13.88;54.53;97839.16;10486897;28;20741;-69
2023/10/26 20:00:54;;;;;;;5.93;3.20;;;;;;;14.47;53.29;97821.41;10484334;28;20321;-70
2023/10/26 20:05:55;;;;;;;9.40;3.60;;;;;;;14.01;54.68;97838.75;10503142;28;20737;-67
2023/10/26 20:10:57;;;;;;;8.10;3.53;;;;;;;13.18;55.49;97937.44;10497556;28;20227;-68
2023/10/26 20:15:59;;;;;;;10.07;3.47;;;;;;;14.81;53.19;97778.81;10513642;28;20254;-69
2023/10/26 20:21:01;;;;;;;10.93;3.77;;;;;;;13.62;55.53;97840.75;10505447;28;20279;-67
2023/10/26 20:26:03;;;;;;;7.07;3.60;;;;;;;15.17;52.53;97772.81;10512013;28;20268;-67
2023/10/26 20:31:05;;;;;;;9.00;3.80;;;;;;;14.37;54.62;97774.53;10509636;28;20223;-67
2023/10/26 20:36:07;;;;;;;7.63;3.37;;;;;;;15.27;51.85;97806.00;10507393;28;20292;-66
2023/10/26 20:41:08;;;;;;;10.23;4.80;;;;;;;15.23;52.46;97796.00;10507693;28;20316;-67
2023/10/26 20:46:11;;;;;;;10.47;3.80;;;;;;;15.18;51.92;97820.25;10508852;28;20230;-69
2023/10/26 20:51:14;;;;;;;7.07;3.17;;;;;;;14.72;53.34;97824.25;10510202;28;20300;-66
2023/10/26 20:56:16;;;;;;;7.20;3.33;;;;;;;14.65;53.52;97787.91;10506869;28;20230;-66
2023/10/26 21:01:17;;;;;;;8.37;3.90;;;;;;;15.28;52.04;97774.47;10483588;28;20245;-67
2023/10/26 21:06:19;;;;;;;9.13;3.20;;;;;;;15.02;52.57;97798.63;10496864;28;20249;-67
2023/10/26 21:11:21;;;;;;;5.27;2.70;;;;;;;13.89;53.99;97913.38;10493635;28;20239;-67
2023/10/26 21:16:25;;;;;;;6.93;3.23;;;;;;;14.30;54.40;97798.13;10499725;28;20640;-66
2023/10/26 21:21:27;;;;;;;9.53;3.80;;;;;;;13.92;54.34;97875.22;10499118;28;20262;-67
2023/10/26 21:26:28;;;;;;;12.30;3.70;;;;;;;14.16;54.26;97824.66;10484696;28;20230;-67
2023/10/26 21:31:30;;;;;;;6.53;3.43;;;;;;;15.06;52.14;97774.66;10497989;28;20345;-66
2023/10/26 21:36:32;;;;;;;8.40;3.43;;;;;;;14.21;53.96;97832.78;10498390;28;20245;-66
2023/10/26 21:41:34;;;;;;;6.27;3.57;;;;;;;14.89;52.71;97747.94;10497549;28;20325;-67
2023/10/26 21:46:35;;;;;;;11.90;3.73;;;;;;;15.09;51.77;97790.31;10497281;28;20861;-67
2023/10/26 21:51:37;;;;;;;8.60;3.40;;;;;;;15.24;52.06;97725.69;10487656;28;20277;-67
2023/10/26 21:56:39;;;;;;;8.33;3.03;;;;;;;16.31;49.52;97702.59;10495595;28;20322;-67
2023/10/26 22:01:41;;;;;;;10.47;4.43;;;;;;;14.66;52.68;97803.78;10485788;28;20243;-67
2023/10/26 22:06:42;;;;;;;9.70;4.10;;;;;;;14.80;52.50;97734.13;10491806;28;20358;-67
2023/10/26 22:11:44;;;;;;;11.57;4.13;;;;;;;15.29;51.43;97759.94;10492692;28;20314;-67
2023/10/26 22:16:46;;;;;;;8.43;3.20;;;;;;;14.85;52.43;97784.53;10501552;28;20905;-69
2023/10/26 22:21:48;;;;;;;10.93;3.50;;;;;;;15.96;50.03;97719.63;10496478;28;20620;-68
2023/10/26 22:26:51;;;;;;;6.53;3.07;;;;;;;15.69;50.40;97736.88;10496246;28;20706;-68
2023/10/26 22:31:53;;;;;;;6.07;2.77;;;;;;;15.93;50.39;97658.94;10496815;28;20365;-68
2023/10/26 22:36:55;;;;;;;8.57;3.40;;;;;;;15.64;50.21;97742.25;10494885;28;20236;-68
2023/10/26 22:41:57;;;;;;;7.77;3.00;;;;;;;16.15;49.32;97744.16;10495424;28;20441;-68
2023/10/26 22:46:59;;;;;;;6.30;3.20;;;;;;;15.78;50.19;97734.47;10494394;28;20322;-68
2023/10/26 22:52:01;;;;;;;7.90;3.40;;;;;;;16.30;48.71;97729.88;10494497;28;20272;-68
2023/10/26 22:57:03;;;;;;;10.53;3.97;;;;;;;14.80;51.66;97822.97;10502584;28;20265;-68
2023/10/26 23:02:04;;;;;;;10.33;3.40;;;;;;;15.00;52.05;97674.19;10496464;28;20720;-68
2023/10/26 23:07:06;;;;;;;8.53;3.10;;;;;;;14.23;53.10;97778.72;10499680;28;20284;-68
2023/10/26 23:12:08;;;;;;;7.13;3.10;;;;;;;14.21;53.25;97721.69;10506588;28;20222;-68
2023/10/26 23:17:12;;;;;;;8.43;3.30;;;;;;;14.72;52.66;97678.09;10505166;28;20679;-67
2023/10/26 23:22:13;;;;;;;10.63;3.10;;;;;;;14.52;53.16;97660.78;10489358;28;20560;-68
2023/10/26 23:27:15;;;;;;;9.13;3.77;;;;;;;13.00;55.12;97791.63;10506545;28;20755;-68
2023/10/26 23:32:17;;;;;;;6.50;3.50;;;;;;;13.19;55.95;97649.81;10502886;28;20268;-68
2023/10/26 23:37:18;;;;;;;6.80;3.80;;;;;;;12.82;56.52;97674.66;10502971;28;20234;-68
2023/10/26 23:42:21;;;;;;;7.97;3.70;;;;;;;13.49;54.87;97645.81;10506305;28;20257;-68